createdAt,value
2018-09-18T00:01:49.932Z,84.50
2018-09-18T00:04:18.604Z,84.90
2018-09-18T00:06:47.338Z,85.30
2018-09-18T00:09:16.034Z,85.30
2018-09-18T00:11:44.643Z,86.30
2018-09-18T00:14:13.353Z,86.20
2018-09-18T00:16:42.105Z,86.30
2018-09-18T00:19:10.848Z,85.50
2018-09-18T00:21:39.548Z,85.20
2018-09-18T00:24:08.205Z,85.10
2018-09-18T00:26:36.736Z,84.40
2018-09-18T00:29:05.415Z,85.10
2018-09-18T00:31:34.330Z,86.00
2018-09-18T00:34:03.016Z,86.60
2018-09-18T00:36:31.733Z,86.20
2018-09-18T00:39:00.296Z,86.30
2018-09-18T00:41:28.871Z,86.00
2018-09-18T00:43:57.455Z,85.70
2018-09-18T00:46:26.041Z,85.00
2018-09-18T00:48:54.580Z,84.70
2018-09-18T00:51:23.268Z,84.40
2018-09-18T00:53:51.873Z,84.80
2018-09-18T00:56:20.405Z,84.90
2018-09-18T00:58:49.352Z,84.70
2018-09-18T01:01:17.901Z,84.30
2018-09-18T01:03:46.537Z,84.50
2018-09-18T01:06:15.188Z,85.10
2018-09-18T01:08:43.785Z,85.80
2018-09-18T01:11:14.250Z,86.00
2018-09-18T01:13:43.955Z,85.80
2018-09-18T01:16:12.545Z,85.90
2018-09-18T01:18:42.110Z,86.30
2018-09-18T01:21:11.437Z,86.20
2018-09-18T01:23:40.036Z,86.20
2018-09-18T01:26:08.667Z,86.20
2018-09-18T01:28:37.275Z,86.70
2018-09-18T01:31:06.005Z,87.10
2018-09-18T01:33:35.078Z,86.70
2018-09-18T01:36:04.465Z,86.90
2018-09-18T01:38:33.130Z,87.20
2018-09-18T01:41:01.844Z,87.20
2018-09-18T01:43:30.535Z,88.10
2018-09-18T01:45:59.201Z,88.70
2018-09-18T01:48:27.829Z,88.80
2018-09-18T01:50:56.465Z,88.10
2018-09-18T01:53:25.439Z,86.80
2018-09-18T01:55:54.078Z,86.60
2018-09-18T01:58:28.205Z,87.90
2018-09-18T02:00:56.800Z,88.30
2018-09-18T02:03:25.425Z,88.40
2018-09-18T02:05:54.043Z,88.50
2018-09-18T02:08:22.668Z,89.00
2018-09-18T02:10:51.243Z,89.40
2018-09-18T02:13:19.806Z,89.50
2018-09-18T02:15:48.568Z,89.50
2018-09-18T02:18:17.136Z,90.20
2018-09-18T02:20:45.713Z,89.40
2018-09-18T02:23:14.288Z,88.50
2018-09-18T02:25:43.496Z,88.60
2018-09-18T02:28:12.193Z,89.30
2018-09-18T02:30:40.863Z,90.10
2018-09-18T02:33:09.711Z,90.30
2018-09-18T02:35:38.406Z,91.00
2018-09-18T02:38:07.142Z,90.70
2018-09-18T02:40:35.848Z,90.60
2018-09-18T02:43:04.961Z,90.70
2018-09-18T02:45:33.656Z,90.90
2018-09-18T02:48:02.416Z,90.70
2018-09-18T02:50:32.095Z,91.00
2018-09-18T02:53:00.748Z,90.50
2018-09-18T02:55:29.425Z,90.50
2018-09-18T02:57:58.017Z,90.60
2018-09-18T03:00:26.643Z,90.40
2018-09-18T03:02:55.260Z,90.50
2018-09-18T03:05:23.833Z,90.40
2018-09-18T03:07:52.393Z,90.00
2018-09-18T03:10:20.953Z,90.30
2018-09-18T03:12:49.548Z,90.60
2018-09-18T03:15:18.318Z,90.60
2018-09-18T03:17:46.916Z,90.20
2018-09-18T03:20:15.563Z,90.30
2018-09-18T03:22:44.122Z,90.50
2018-09-18T03:25:12.764Z,90.70
2018-09-18T03:27:41.335Z,91.10
2018-09-18T03:30:09.994Z,91.40
2018-09-18T03:32:38.643Z,91.50
2018-09-18T03:35:07.203Z,91.80
2018-09-18T03:37:35.793Z,91.80
2018-09-18T03:40:04.518Z,91.30
2018-09-18T03:42:33.102Z,90.70
2018-09-18T03:45:01.701Z,90.60
2018-09-18T03:47:30.245Z,90.40
2018-09-18T03:49:58.853Z,90.50
2018-09-18T03:52:27.438Z,90.10
2018-09-18T03:54:56.003Z,89.40
2018-09-18T03:57:24.621Z,89.70
2018-09-18T03:59:53.286Z,90.20
2018-09-18T04:02:22.171Z,90.10
2018-09-18T04:04:51.751Z,90.30
2018-09-18T04:07:20.318Z,90.20
2018-09-18T04:09:48.960Z,90.30
2018-09-18T04:12:17.631Z,90.70
2018-09-18T04:14:46.296Z,90.60
2018-09-18T04:17:15.736Z,90.70
2018-09-18T04:19:44.446Z,91.30
2018-09-18T04:22:13.014Z,90.70
2018-09-18T04:24:41.593Z,91.20
2018-09-18T04:27:11.144Z,91.20
2018-09-18T04:29:39.712Z,90.90
2018-09-18T04:32:08.312Z,90.80
2018-09-18T04:34:36.868Z,90.80
2018-09-18T04:37:05.473Z,91.20
2018-09-18T04:39:35.023Z,90.90
2018-09-18T04:42:03.644Z,90.60
2018-09-18T04:44:32.286Z,90.60
2018-09-18T04:47:00.881Z,90.90
2018-09-18T04:49:29.510Z,90.80
2018-09-18T04:51:58.108Z,90.80
2018-09-18T04:54:26.751Z,91.00
2018-09-18T04:56:55.501Z,91.00
2018-09-18T04:59:24.261Z,90.90
2018-09-18T05:01:53.017Z,90.70
2018-09-18T05:04:22.123Z,90.70
2018-09-18T05:06:50.936Z,90.90
2018-09-18T05:09:19.696Z,90.80
2018-09-18T05:11:48.342Z,90.70
2018-09-18T05:14:17.001Z,90.50
2018-09-18T05:16:45.736Z,90.30
2018-09-18T05:19:14.453Z,90.40
2018-09-18T05:21:43.180Z,90.70
2018-09-18T05:24:11.891Z,90.70
2018-09-18T05:26:40.616Z,90.10
2018-09-18T05:29:09.364Z,90.20
2018-09-18T05:31:38.034Z,90.50
2018-09-18T05:34:06.683Z,90.40
2018-09-18T05:36:35.361Z,90.60
2018-09-18T05:39:05.975Z,91.00
2018-09-18T05:41:34.681Z,90.60
2018-09-18T05:44:03.454Z,90.60
2018-09-18T05:46:32.207Z,90.20
2018-09-18T05:49:00.871Z,90.10
2018-09-18T05:51:29.528Z,90.50
2018-09-18T05:53:58.176Z,90.60
2018-09-18T05:56:26.937Z,90.80
2018-09-18T05:58:55.661Z,90.40
2018-09-18T06:01:24.431Z,89.80
2018-09-18T06:03:53.033Z,88.90
2018-09-18T06:06:21.588Z,88.80
2018-09-18T06:08:50.103Z,88.60
2018-09-18T06:11:18.701Z,87.40
2018-09-18T06:13:47.366Z,87.10
2018-09-18T06:16:16.133Z,86.10
2018-09-18T06:18:44.871Z,85.30
2018-09-18T06:21:14.516Z,81.80
2018-09-18T06:23:43.293Z,80.10
2018-09-18T06:26:12.009Z,78.30
2018-09-18T06:28:40.648Z,78.50
2018-09-18T06:31:09.333Z,79.20
2018-09-18T06:33:37.917Z,80.10
2018-09-18T06:36:06.605Z,80.70
2018-09-18T06:38:35.168Z,80.60
2018-09-18T06:41:03.700Z,78.20
2018-09-18T06:43:32.205Z,77.30
2018-09-18T06:46:00.736Z,75.40
2018-09-18T06:48:29.347Z,74.90
2018-09-18T06:50:57.880Z,73.40
2018-09-18T06:53:26.400Z,72.80
2018-09-18T06:55:54.945Z,70.80
2018-09-18T06:58:23.486Z,71.40
2018-09-18T07:00:52.023Z,70.80
2018-09-18T07:03:20.593Z,69.30
2018-09-18T07:05:49.343Z,69.00
2018-09-18T07:08:18.025Z,68.20
2018-09-18T07:10:46.675Z,68.60
2018-09-18T07:13:15.493Z,69.00
2018-09-18T07:15:44.146Z,69.10
2018-09-18T07:18:12.849Z,69.20
2018-09-18T07:20:41.522Z,70.10
2018-09-18T07:23:10.155Z,70.40
2018-09-18T07:25:38.818Z,70.50
2018-09-18T07:28:07.450Z,70.40
2018-09-18T07:30:36.127Z,68.80
2018-09-18T07:33:04.798Z,68.60
2018-09-18T07:35:33.448Z,68.10
2018-09-18T07:38:02.083Z,67.30
2018-09-18T07:40:30.740Z,66.90
2018-09-18T07:42:59.409Z,67.10
2018-09-18T07:45:28.052Z,66.30
2018-09-18T07:47:56.673Z,65.80
2018-09-18T07:50:25.321Z,65.10
2018-09-18T07:52:53.943Z,63.30
2018-09-18T07:55:28.036Z,62.70
2018-09-18T07:57:56.559Z,60.70
2018-09-18T08:00:25.105Z,62.20
2018-09-18T08:02:53.637Z,59.10
2018-09-18T08:05:22.257Z,57.80
2018-09-18T08:07:50.929Z,58.00
2018-09-18T08:10:19.669Z,56.50
2018-09-18T08:12:48.419Z,55.00
2018-09-18T08:15:17.002Z,54.70
2018-09-18T08:17:45.554Z,54.40
2018-09-18T08:20:14.119Z,54.10
2018-09-18T08:22:42.654Z,53.90
2018-09-18T08:25:11.269Z,54.00
2018-09-18T08:27:39.949Z,51.30
2018-09-18T08:30:08.703Z,51.10
2018-09-18T08:32:37.356Z,50.30
2018-09-18T08:35:06.127Z,49.80
2018-09-18T08:37:34.814Z,48.80
2018-09-18T08:40:03.589Z,47.90
2018-09-18T08:42:32.286Z,45.60
2018-09-18T08:45:00.926Z,46.40
2018-09-18T08:47:29.604Z,45.80
2018-09-18T08:49:58.349Z,46.80
2018-09-18T08:52:27.028Z,44.90
2018-09-18T08:54:55.667Z,43.80
2018-09-18T08:57:24.852Z,43.60
2018-09-18T08:59:53.718Z,43.90
2018-09-18T09:02:22.407Z,43.30
2018-09-18T09:04:51.081Z,43.30
2018-09-18T09:07:19.905Z,42.20
2018-09-18T09:09:48.589Z,41.60
2018-09-18T09:12:17.338Z,41.00
2018-09-18T09:14:45.954Z,39.70
2018-09-18T09:17:14.527Z,37.90
2018-09-18T09:19:43.117Z,33.70
2018-09-18T09:22:11.772Z,34.90
2018-09-18T09:24:40.396Z,35.50
2018-09-18T09:27:09.131Z,36.90
2018-09-18T09:29:37.862Z,37.80
2018-09-18T09:32:06.923Z,38.10
2018-09-18T09:34:35.612Z,38.20
2018-09-18T09:37:04.461Z,36.00
2018-09-18T09:39:33.138Z,37.70
2018-09-18T09:42:05.607Z,37.40
2018-09-18T09:44:34.199Z,36.90
2018-09-18T09:47:02.769Z,36.90
2018-09-18T09:49:31.306Z,34.30
2018-09-18T09:51:59.849Z,33.70
2018-09-18T09:54:28.434Z,35.30
2018-09-18T09:56:57.046Z,37.40
2018-09-18T09:59:25.543Z,39.00
2018-09-18T10:01:59.596Z,39.70
2018-09-18T10:04:28.146Z,38.50
2018-09-18T10:06:56.742Z,37.50
2018-09-18T10:09:30.931Z,35.20
2018-09-18T10:11:59.599Z,35.00
2018-09-18T10:14:28.181Z,37.10
2018-09-18T10:16:56.818Z,38.40
2018-09-18T10:19:25.356Z,38.00
2018-09-18T10:21:54.040Z,37.50
2018-09-18T10:24:22.714Z,37.20
2018-09-18T10:26:51.485Z,36.10
2018-09-18T10:29:20.216Z,35.40
2018-09-18T10:31:48.961Z,35.40
2018-09-18T10:34:17.629Z,33.90
2018-09-18T10:36:46.314Z,33.80
2018-09-18T10:39:15.089Z,31.10
2018-09-18T10:41:43.815Z,30.70
2018-09-18T10:44:13.031Z,30.80
2018-09-18T10:46:41.638Z,29.80
2018-09-18T10:49:10.231Z,29.10
2018-09-18T10:51:38.786Z,30.00
2018-09-18T10:54:07.496Z,29.20
2018-09-18T10:56:36.228Z,28.50
2018-09-18T10:59:05.657Z,28.60
2018-09-18T11:01:34.371Z,29.30
2018-09-18T11:04:03.124Z,29.90
2018-09-18T11:06:31.811Z,30.70
2018-09-18T11:09:00.566Z,30.80
2018-09-18T11:11:29.310Z,31.40
2018-09-18T11:13:58.062Z,33.20
2018-09-18T11:16:26.603Z,34.80
2018-09-18T11:18:55.230Z,36.30
2018-09-18T11:21:23.880Z,37.60
2018-09-18T11:23:52.526Z,38.40
2018-09-18T11:26:21.209Z,40.80
2018-09-18T11:28:50.552Z,40.80
2018-09-18T11:31:19.378Z,41.30
2018-09-18T11:33:47.922Z,41.20
2018-09-18T11:36:16.465Z,42.60
2018-09-18T11:38:45.047Z,46.70
2018-09-18T11:41:13.604Z,48.60
2018-09-18T11:43:42.281Z,48.50
2018-09-18T11:46:10.981Z,54.10
2018-09-18T11:48:39.686Z,56.40
2018-09-18T11:51:08.357Z,58.30
2018-09-18T11:53:36.961Z,58.00
2018-09-18T11:56:11.214Z,58.00
2018-09-18T11:58:46.069Z,51.30
2018-09-18T12:01:14.726Z,46.00
2018-09-18T12:03:43.616Z,42.30
2018-09-18T12:06:12.311Z,39.00
2018-09-18T12:08:41.835Z,35.60
2018-09-18T12:11:10.716Z,35.20
2018-09-18T12:13:39.393Z,32.50
2018-09-18T12:16:08.064Z,34.70
2018-09-18T12:18:37.367Z,34.10
2018-09-18T12:21:07.173Z,33.40
2018-09-18T12:23:35.802Z,33.60
2018-09-18T12:26:04.507Z,32.10
2018-09-18T12:28:33.476Z,31.40
2018-09-18T12:31:02.314Z,34.40
2018-09-18T12:33:31.077Z,34.60
2018-09-18T12:35:59.873Z,36.90
2018-09-18T12:38:28.567Z,36.50
2018-09-18T12:40:57.307Z,39.20
2018-09-18T12:43:25.869Z,40.00
2018-09-18T12:45:54.497Z,39.10
2018-09-18T12:48:24.069Z,40.40
2018-09-18T12:50:52.797Z,41.00
2018-09-18T12:53:27.038Z,40.50
2018-09-18T12:55:56.835Z,40.90
2018-09-18T12:58:25.685Z,42.30
2018-09-18T13:00:54.441Z,43.40
2018-09-18T13:03:23.320Z,43.00
2018-09-18T13:05:52.158Z,45.80
2018-09-18T13:08:21.435Z,46.90
2018-09-18T13:10:50.188Z,46.50
2018-09-18T13:13:18.920Z,44.90
2018-09-18T13:15:47.745Z,44.30
2018-09-18T13:18:16.489Z,45.10
2018-09-18T13:20:45.309Z,44.90
2018-09-18T13:23:14.037Z,43.40
2018-09-18T13:25:42.804Z,41.40
2018-09-18T13:28:11.527Z,39.70
2018-09-18T13:30:40.314Z,39.40
2018-09-18T13:33:09.017Z,41.10
2018-09-18T13:35:38.088Z,42.70
2018-09-18T13:38:07.373Z,44.40
2018-09-18T13:40:36.556Z,45.90
2018-09-18T13:43:05.278Z,45.60
2018-09-18T13:45:33.977Z,46.10
2018-09-18T13:48:02.853Z,46.50
2018-09-18T13:50:31.856Z,47.60
2018-09-18T13:53:02.969Z,47.60
2018-09-18T13:55:31.863Z,47.30
2018-09-18T13:58:01.047Z,47.60
2018-09-18T14:00:30.012Z,46.70
2018-09-18T14:03:00.582Z,44.00
2018-09-18T14:05:29.750Z,40.30
2018-09-18T14:07:58.513Z,39.70
2018-09-18T14:10:27.444Z,39.70
2018-09-18T14:12:56.497Z,38.70
2018-09-18T14:15:25.333Z,37.10
2018-09-18T14:17:54.191Z,36.90
2018-09-18T14:20:22.968Z,37.60
2018-09-18T14:22:51.708Z,38.90
2018-09-18T14:25:21.239Z,40.40
2018-09-18T14:27:50.026Z,41.40
2018-09-18T14:30:18.762Z,44.60
2018-09-18T14:32:47.626Z,45.00
2018-09-18T14:35:16.424Z,48.00
2018-09-18T14:37:45.642Z,48.00
2018-09-18T14:40:14.369Z,47.10
2018-09-18T14:42:43.113Z,47.00
2018-09-18T14:45:11.900Z,47.70
2018-09-18T14:47:41.749Z,49.60
2018-09-18T14:50:11.229Z,47.40
2018-09-18T14:52:39.971Z,49.70
2018-09-18T14:55:08.775Z,55.80
2018-09-18T14:57:38.416Z,62.40
2018-09-18T15:00:07.243Z,60.70
2018-09-18T15:02:36.011Z,62.20
2018-09-18T15:05:04.876Z,65.30
2018-09-18T15:07:33.634Z,66.30
2018-09-18T15:10:03.353Z,64.20
2018-09-18T15:12:32.117Z,64.00
2018-09-18T15:15:06.403Z,61.80
2018-09-18T15:17:35.034Z,70.30
2018-09-18T15:20:04.596Z,63.60
2018-09-18T15:22:33.484Z,71.70
2018-09-18T15:25:02.159Z,68.20
2018-09-18T15:27:31.498Z,79.10
2018-09-18T15:30:00.074Z,79.10
2018-09-18T15:32:28.774Z,78.00
2018-09-18T15:34:57.828Z,77.50
2018-09-18T15:37:26.578Z,76.60
2018-09-18T15:39:55.927Z,74.50
2018-09-18T15:42:24.596Z,74.70
2018-09-18T15:44:53.244Z,74.60
2018-09-18T15:47:21.962Z,75.00
2018-09-18T15:49:50.774Z,73.70
2018-09-18T15:52:19.581Z,71.30
2018-09-18T15:54:48.340Z,72.40
2018-09-18T15:57:17.655Z,72.00
2018-09-18T15:59:46.485Z,73.90
2018-09-18T16:02:15.324Z,73.50
2018-09-18T16:04:44.044Z,74.00
2018-09-18T16:07:12.756Z,73.90
2018-09-18T16:09:41.473Z,71.90
2018-09-18T16:12:10.196Z,73.00
2018-09-18T16:14:38.999Z,71.00
2018-09-18T16:17:07.689Z,70.40
2018-09-18T16:19:41.920Z,71.90
2018-09-18T16:22:10.540Z,71.70
2018-09-18T16:24:39.159Z,71.60
2018-09-18T16:27:07.868Z,72.60
2018-09-18T16:29:36.616Z,76.20
2018-09-18T16:32:05.316Z,76.70
2018-09-18T16:34:34.661Z,76.30
2018-09-18T16:37:03.312Z,77.00
2018-09-18T16:39:37.379Z,79.00
2018-09-18T16:42:06.019Z,78.90
2018-09-18T16:44:45.751Z,77.00
2018-09-18T16:47:14.747Z,77.70
2018-09-18T16:49:43.464Z,76.80
2018-09-18T16:52:12.240Z,77.60
2018-09-18T16:54:41.058Z,76.30
2018-09-18T16:57:09.694Z,76.90
2018-09-18T16:59:39.067Z,77.30
2018-09-18T17:02:07.710Z,76.60
2018-09-18T17:04:36.377Z,78.00
2018-09-18T17:07:05.252Z,78.40
2018-09-18T17:09:34.016Z,79.10
2018-09-18T17:12:02.758Z,79.50
2018-09-18T17:14:31.628Z,80.50
2018-09-18T17:17:00.331Z,81.30
2018-09-18T17:19:29.601Z,82.60
2018-09-18T17:21:58.196Z,82.70
2018-09-18T17:24:38.736Z,83.10
2018-09-18T17:27:08.159Z,83.60
2018-09-18T17:29:36.972Z,84.10
2018-09-18T17:32:05.681Z,84.00
2018-09-18T17:34:34.356Z,83.70
2018-09-18T17:37:03.026Z,83.30
2018-09-18T17:39:31.657Z,83.60
2018-09-18T17:42:00.299Z,84.40
2018-09-18T17:44:29.745Z,84.90
2018-09-18T17:46:59.306Z,85.40
2018-09-18T17:49:33.611Z,85.60
2018-09-18T17:52:03.437Z,85.70
2018-09-18T17:54:32.225Z,85.70
2018-09-18T17:57:04.852Z,86.10
2018-09-18T17:59:36.198Z,86.40
2018-09-18T18:02:05.358Z,86.90
2018-09-18T18:04:34.236Z,86.90
2018-09-18T18:07:03.237Z,88.10
2018-09-18T18:09:32.092Z,87.80
2018-09-18T18:12:01.132Z,88.40
2018-09-18T18:14:36.595Z,88.10
2018-09-18T18:17:06.925Z,88.60
2018-09-18T18:19:41.509Z,87.80
2018-09-18T18:22:11.035Z,87.80
2018-09-18T18:24:45.249Z,88.30
2018-09-18T18:27:14.518Z,89.10
2018-09-18T18:29:43.367Z,89.20
2018-09-18T18:32:17.470Z,89.70
2018-09-18T18:34:46.135Z,90.20
2018-09-18T18:37:14.979Z,90.30
2018-09-18T18:39:43.731Z,90.50
2018-09-18T18:42:19.041Z,90.20
2018-09-18T18:44:47.957Z,90.10
2018-09-18T18:47:17.224Z,89.90
2018-09-18T18:49:46.011Z,90.30
2018-09-18T18:52:14.797Z,90.60
2018-09-18T18:54:43.787Z,90.90
2018-09-18T18:57:12.762Z,91.00
2018-09-18T18:59:41.561Z,91.10
2018-09-18T19:02:11.343Z,90.80
2018-09-18T19:04:40.103Z,90.50
2018-09-18T19:07:09.516Z,90.50
2018-09-18T19:09:38.231Z,90.60
2018-09-18T19:12:08.996Z,90.60
2018-09-18T19:14:38.004Z,90.70
2018-09-18T19:17:07.795Z,90.60
2018-09-18T19:19:36.460Z,90.80
2018-09-18T19:22:16.163Z,90.80
2018-09-18T19:24:44.774Z,90.90
2018-09-18T19:27:13.483Z,91.00
2018-09-18T19:29:42.241Z,91.20
2018-09-18T19:32:10.982Z,91.20
2018-09-18T19:34:40.525Z,91.30
2018-09-18T19:37:09.406Z,91.30
2018-09-18T19:39:38.239Z,91.40
2018-09-18T19:42:07.123Z,91.40
2018-09-18T19:44:35.947Z,91.40
2018-09-18T19:47:04.740Z,91.30
2018-09-18T19:49:39.652Z,91.00
2018-09-18T19:52:09.828Z,91.10
2018-09-18T19:54:44.574Z,90.90
2018-09-18T19:57:18.789Z,91.00
2018-09-18T19:59:47.417Z,90.90
2018-09-18T20:02:16.054Z,91.20
2018-09-18T20:04:44.738Z,91.40
2018-09-18T20:07:13.424Z,91.70
2018-09-18T20:09:42.180Z,92.00
2018-09-18T20:12:11.612Z,92.00
2018-09-18T20:14:40.274Z,92.00
2018-09-18T20:17:14.531Z,92.10
2018-09-18T20:19:48.765Z,92.10
2018-09-18T20:22:23.157Z,92.20
2018-09-18T20:24:51.803Z,92.50
2018-09-18T20:27:26.175Z,92.50
2018-09-18T20:29:55.630Z,92.50
2018-09-18T20:32:24.811Z,92.40
2018-09-18T20:34:54.498Z,92.40
2018-09-18T20:37:23.573Z,91.90
2018-09-18T20:39:52.304Z,91.80
2018-09-18T20:42:21.046Z,91.80
2018-09-18T20:44:50.426Z,91.80
2018-09-18T20:47:19.143Z,91.50
2018-09-18T20:49:47.799Z,92.10
2018-09-18T20:52:16.441Z,91.40
2018-09-18T20:54:45.092Z,91.60
2018-09-18T20:57:13.907Z,91.40
2018-09-18T20:59:42.689Z,91.10
2018-09-18T21:02:11.453Z,91.20
2018-09-18T21:04:40.201Z,91.50
2018-09-18T21:07:09.239Z,91.30
2018-09-18T21:09:37.999Z,90.90
2018-09-18T21:12:07.427Z,91.20
2018-09-18T21:14:36.008Z,91.30
2018-09-18T21:17:10.228Z,91.50
2018-09-18T21:19:39.443Z,91.60
2018-09-18T21:22:08.026Z,91.70
2018-09-18T21:24:36.691Z,92.00
2018-09-18T21:27:10.866Z,91.90
2018-09-18T21:29:40.121Z,91.90
2018-09-18T21:32:08.773Z,91.90
2018-09-18T21:34:37.477Z,92.10
2018-09-18T21:37:06.343Z,91.90
2018-09-18T21:39:35.067Z,92.30
2018-09-18T21:42:04.446Z,92.30
2018-09-18T21:44:34.187Z,92.30
2018-09-18T21:47:02.864Z,92.40
2018-09-18T21:49:32.286Z,92.40
2018-09-18T21:52:01.468Z,92.50
2018-09-18T21:54:30.222Z,92.70
2018-09-18T21:56:59.536Z,93.00
2018-09-18T21:59:28.244Z,92.70
2018-09-18T22:01:56.848Z,92.70
2018-09-18T22:04:25.505Z,92.80
2018-09-18T22:06:54.196Z,92.90
2018-09-18T22:09:22.876Z,92.80
2018-09-18T22:11:51.768Z,92.50
2018-09-18T22:14:20.538Z,92.50
2018-09-18T22:16:49.932Z,92.40
2018-09-18T22:19:18.618Z,92.50
2018-09-18T22:21:47.429Z,92.80
2018-09-18T22:24:16.102Z,92.70
2018-09-18T22:26:44.835Z,92.80
2018-09-18T22:29:13.546Z,93.30
2018-09-18T22:31:42.365Z,93.20
2018-09-18T22:34:11.098Z,93.50
2018-09-18T22:36:39.783Z,92.60
2018-09-18T22:39:10.408Z,93.10
2018-09-18T22:41:39.265Z,93.00
2018-09-18T22:44:08.220Z,92.80
2018-09-18T22:46:36.983Z,92.00
2018-09-18T22:49:06.128Z,91.70
2018-09-18T22:51:34.839Z,92.00
2018-09-18T22:54:03.624Z,92.00
2018-09-18T22:56:32.328Z,92.30
2018-09-18T22:59:01.132Z,92.50
2018-09-18T23:01:29.964Z,92.60
2018-09-18T23:03:58.818Z,92.90
2018-09-18T23:06:27.606Z,93.80
2018-09-18T23:08:56.309Z,92.80
2018-09-18T23:11:24.989Z,93.00
2018-09-18T23:13:53.882Z,93.20
2018-09-18T23:16:22.653Z,93.50
2018-09-18T23:18:51.530Z,93.50
2018-09-18T23:21:21.316Z,94.20
2018-09-18T23:23:50.252Z,94.40
2018-09-18T23:26:19.485Z,94.60
2018-09-18T23:28:48.041Z,94.50
2018-09-18T23:31:16.668Z,94.30
2018-09-18T23:33:45.267Z,94.30
2018-09-18T23:36:14.005Z,94.40
2018-09-18T23:38:42.686Z,94.60
2018-09-18T23:41:11.433Z,94.60
2018-09-18T23:43:40.141Z,94.60
2018-09-18T23:46:08.837Z,94.60
2018-09-18T23:48:37.594Z,94.70
2018-09-18T23:51:06.157Z,94.70
2018-09-18T23:53:34.828Z,95.00
2018-09-18T23:56:03.517Z,94.90
2018-09-18T23:58:32.563Z,94.70
